Time;durP1;ratioP1;P1;durP2;ratioP2;P2;SDS_P1;SDS_P2;PMS_P1;PMS_P2;Temp;Humidity;BMP_temperature;BMP_pressure;BME280_temperature;BME280_humidity;BME280_pressure;Samples;Min_cycle;Max_cycle;Signal;HPM_P1;HPM_P2
2021/05/27 00:09:09;;;;;;;12.13;10.28;;;;;;;16.66;100.00;99979.25;1749879;79;22841;-59
2021/05/27 00:11:36;;;;;;;11.57;9.93;;;;;;;16.61;100.00;99981.44;1706212;82;21504;-57
2021/05/27 00:14:05;;;;;;;12.05;10.53;;;;;;;16.61;100.00;99975.98;1702181;82;20976;-58
2021/05/27 00:16:31;;;;;;;12.00;10.80;;;;;;;16.60;100.00;99978.83;1700526;82;20977;-58
2021/05/27 00:19:00;;;;;;;13.68;10.45;;;;;;;16.59;100.00;99977.97;1699508;82;21482;-57
2021/05/27 00:21:27;;;;;;;13.90;11.38;;;;;;;16.58;100.00;99978.95;1705168;82;20973;-58
2021/05/27 00:23:54;;;;;;;16.05;10.98;;;;;;;16.58;100.00;99970.78;1706761;82;20933;-58
2021/05/27 00:26:21;;;;;;;13.90;10.23;;;;;;;16.58;100.00;99966.70;1698156;82;21062;-59
2021/05/27 00:28:49;;;;;;;12.58;10.20;;;;;;;16.58;100.00;99974.88;1698975;82;21008;-57
2021/05/27 00:31:16;;;;;;;13.50;10.85;;;;;;;16.58;100.00;99972.14;1706040;82;20929;-59
2021/05/27 00:33:43;;;;;;;12.23;11.00;;;;;;;16.57;100.00;99974.50;1701896;82;20988;-58
2021/05/27 00:38:56;;;;;;;12.33;10.88;;;;;;;16.59;100.00;99961.63;1835813;75;23309;-58
2021/05/27 00:41:23;;;;;;;11.50;10.40;;;;;;;16.53;100.00;99962.08;1809691;77;20944;-57
2021/05/27 00:43:49;;;;;;;15.63;10.68;;;;;;;16.51;100.00;99966.73;1808846;77;22273;-59
2021/05/27 00:46:16;;;;;;;12.47;10.38;;;;;;;16.48;100.00;99963.76;1807909;77;20882;-59
2021/05/27 00:48:57;;;;;;;13.08;11.18;;;;;;;16.47;100.00;99963.38;1811222;77;20953;-58
2021/05/27 00:51:27;;;;;;;15.67;11.43;;;;;;;16.48;100.00;99958.80;1821349;77;20953;-57
2021/05/27 00:53:55;;;;;;;13.48;11.30;;;;;;;16.46;100.00;99950.76;1813359;77;21013;-58
2021/05/27 00:56:22;;;;;;;14.38;11.83;;;;;;;16.46;100.00;99953.48;1813357;77;21047;-60
2021/05/27 00:58:49;;;;;;;15.35;10.70;;;;;;;16.48;100.00;99956.08;1809843;77;20972;-59
2021/05/27 01:01:16;;;;;;;18.25;11.95;;;;;;;16.50;100.00;99956.83;1814445;77;20902;-58
2021/05/27 01:03:43;;;;;;;16.70;12.53;;;;;;;16.50;100.00;99960.92;1812396;78;20921;-58
2021/05/27 01:06:10;;;;;;;14.93;11.45;;;;;;;16.50;100.00;99954.11;1813842;77;20890;-59
2021/05/27 01:08:37;;;;;;;15.40;11.93;;;;;;;16.51;100.00;99958.56;1797912;77;21032;-58
2021/05/27 01:11:06;;;;;;;15.48;12.05;;;;;;;16.52;100.00;99955.39;1810014;77;20987;-58
2021/05/27 01:13:33;;;;;;;13.80;11.05;;;;;;;16.51;100.00;99951.77;1813146;77;20913;-58
2021/05/27 01:16:01;;;;;;;14.90;11.73;;;;;;;16.51;100.00;99951.77;1780684;77;20965;-57
2021/05/27 01:18:29;;;;;;;17.12;12.78;;;;;;;16.52;100.00;99949.45;1813467;77;20993;-59
2021/05/27 01:20:57;;;;;;;14.03;11.68;;;;;;;16.53;100.00;99953.03;1814127;78;21661;-58
2021/05/27 01:23:26;;;;;;;13.93;12.37;;;;;;;16.52;100.00;99962.19;1789115;78;20906;-58
2021/05/27 01:25:55;;;;;;;15.72;11.10;;;;;;;16.51;100.00;99959.93;1762062;79;21330;-58
2021/05/27 01:28:31;;;;;;;12.85;11.22;;;;;;;16.50;100.00;99948.66;1815539;77;20973;-58
2021/05/27 01:30:58;;;;;;;15.75;13.00;;;;;;;16.50;100.00;99951.39;1806141;78;21061;-58
2021/05/27 01:33:33;;;;;;;13.22;11.73;;;;;;;16.51;100.00;99953.13;1818390;77;21516;-58
2021/05/27 01:36:00;;;;;;;15.40;11.95;;;;;;;16.51;100.00;99953.13;1808484;77;20910;-58
2021/05/27 01:38:29;;;;;;;14.20;12.70;;;;;;;16.51;100.00;99955.84;1808398;77;20984;-59
2021/05/27 01:40:59;;;;;;;15.63;12.43;;;;;;;16.51;100.00;99961.30;1821306;77;20914;-58
2021/05/27 01:43:26;;;;;;;15.20;12.43;;;;;;;16.49;100.00;99957.33;1798552;77;21675;-58
2021/05/27 01:45:54;;;;;;;18.62;13.40;;;;;;;16.49;100.00;99955.09;1799023;77;21038;-57
2021/05/27 01:48:21;;;;;;;20.08;13.00;;;;;;;16.48;100.00;99958.80;1812435;77;20937;-58
2021/05/27 01:50:50;;;;;;;13.15;11.45;;;;;;;16.48;100.00;99960.17;1769598;79;20883;-58
2021/05/27 01:53:19;;;;;;;16.80;12.93;;;;;;;16.48;100.00;99953.36;1771228;79;20926;-56
2021/05/27 01:55:48;;;;;;;18.80;12.68;;;;;;;16.48;100.00;99957.45;1814193;77;20981;-58
2021/05/27 01:58:16;;;;;;;17.32;11.60;;;;;;;16.48;100.00;99959.67;1800158;78;21049;-58
2021/05/27 02:00:45;;;;;;;16.20;12.18;;;;;;;16.48;100.00;99953.36;1809882;77;21410;-58
2021/05/27 02:03:12;;;;;;;22.42;12.98;;;;;;;16.47;100.00;99948.91;1796431;78;21535;-57
2021/05/27 02:05:43;;;;;;;14.65;11.57;;;;;;;16.48;100.00;99956.08;1814095;78;20969;-58
2021/05/27 02:08:12;;;;;;;18.02;12.50;;;;;;;16.48;100.00;99956.95;1807540;77;20949;-57
2021/05/27 02:10:46;;;;;;;14.07;11.60;;;;;;;16.47;100.00;99947.05;1817732;77;21071;-58
2021/05/27 02:13:15;;;;;;;14.95;12.50;;;;;;;16.47;100.00;99947.54;1809130;77;20910;-58
2021/05/27 02:15:43;;;;;;;20.82;13.00;;;;;;;16.46;100.00;99953.97;1810635;77;20910;-58
2021/05/27 02:18:12;;;;;;;20.32;12.80;;;;;;;16.45;100.00;99948.13;1814477;78;20977;-57
2021/05/27 02:20:39;;;;;;;22.05;13.22;;;;;;;16.44;100.00;99955.42;1807875;78;21536;-57
2021/05/27 02:23:06;;;;;;;17.35;12.47;;;;;;;16.44;100.00;99957.28;1789485;77;21050;-58
2021/05/27 02:25:45;;;;;;;15.58;12.35;;;;;;;16.44;100.00;99958.63;1810408;77;21358;-58
2021/05/27 02:28:14;;;;;;;15.00;12.20;;;;;;;16.45;100.00;99956.29;1798813;77;20897;-58
2021/05/27 02:30:43;;;;;;;13.98;11.88;;;;;;;16.45;100.00;99956.29;1804092;77;20992;-58
2021/05/27 02:33:12;;;;;;;17.48;12.73;;;;;;;16.45;100.00;99954.44;1816907;77;20930;-58
2021/05/27 02:35:40;;;;;;;17.37;12.30;;;;;;;16.47;100.00;99959.80;1813144;77;21583;-57
2021/05/27 02:38:08;;;;;;;18.23;13.35;;;;;;;16.46;100.00;99955.33;1795089;78;21025;-59
2021/05/27 02:40:37;;;;;;;19.77;12.82;;;;;;;16.46;100.00;99952.61;1809538;77;21379;-58
2021/05/27 02:43:05;;;;;;;16.12;13.35;;;;;;;16.47;100.00;99955.70;1807416;77;20892;-58
2021/05/27 02:45:33;;;;;;;17.23;13.03;;;;;;;16.45;100.00;99947.63;1811986;77;20949;-58
2021/05/27 02:48:03;;;;;;;14.47;12.63;;;;;;;16.46;100.00;99941.72;1821411;77;20919;-58
2021/05/27 02:53:53;;;;;;;18.40;12.98;;;;;;;16.54;100.00;99932.50;1812828;77;22753;-58
2021/05/27 02:56:20;;;;;;;21.85;15.70;;;;;;;16.49;100.00;99930.59;1783835;77;20926;-57
2021/05/27 02:58:50;;;;;;;19.15;14.73;;;;;;;16.50;100.00;99929.61;1784846;79;21096;-57
2021/05/27 03:01:18;;;;;;;18.48;14.73;;;;;;;16.50;100.00;99935.05;1781539;79;20921;-57
2021/05/27 03:03:46;;;;;;;20.40;13.65;;;;;;;16.50;100.00;99933.69;1787709;79;21486;-58
2021/05/27 03:06:13;;;;;;;17.42;15.43;;;;;;;16.48;100.00;99928.36;1795976;79;20918;-58
2021/05/27 03:08:42;;;;;;;17.25;14.47;;;;;;;16.47;100.00;99929.84;1798633;79;20957;-58
2021/05/27 03:11:10;;;;;;;18.00;15.20;;;;;;;16.48;100.00;99934.30;1779446;79;20974;-58
2021/05/27 03:13:40;;;;;;;18.60;15.08;;;;;;;16.46;100.00;99931.70;1781051;79;20938;-58
2021/05/27 03:16:09;;;;;;;17.95;14.63;;;;;;;16.50;100.00;99933.69;1794592;79;20977;-57
2021/05/27 03:18:38;;;;;;;17.42;15.48;;;;;;;16.51;100.00;99928.62;1792963;79;20962;-59
2021/05/27 03:21:05;;;;;;;18.70;14.65;;;;;;;16.51;100.00;99931.34;1788975;79;21652;-59
2021/05/27 03:23:33;;;;;;;20.17;15.65;;;;;;;16.55;100.00;99930.64;1783273;79;21041;-59
2021/05/27 03:26:01;;;;;;;19.35;15.28;;;;;;;16.54;100.00;99932.50;1780105;79;20966;-58
2021/05/27 03:28:28;;;;;;;18.00;15.55;;;;;;;16.53;100.00;99929.40;1787363;79;20894;-57
2021/05/27 03:31:06;;;;;;;16.73;14.85;;;;;;;16.56;100.00;99929.16;1790121;79;20950;-58
2021/05/27 03:33:34;;;;;;;18.40;15.35;;;;;;;16.66;100.00;99923.43;1743047;81;20910;-57
2021/05/27 03:36:06;;;;;;;17.48;15.53;;;;;;;16.69;100.00;99928.66;1683384;84;21621;-55
2021/05/27 03:38:34;;;;;;;17.60;15.63;;;;;;;16.71;100.00;99928.09;1757439;80;20918;-56
2021/05/27 03:41:01;;;;;;;17.00;15.28;;;;;;;16.73;100.00;99928.86;1709934;81;20936;-56
2021/05/27 03:43:30;;;;;;;17.85;15.70;;;;;;;16.75;100.00;99932.33;1746011;81;20909;-58
2021/05/27 03:45:59;;;;;;;20.20;14.87;;;;;;;16.76;100.00;99933.20;1750193;80;21534;-58
2021/05/27 03:48:27;;;;;;;19.12;15.98;;;;;;;16.75;100.00;99930.11;1754077;81;21617;-57
2021/05/27 03:50:54;;;;;;;19.80;16.37;;;;;;;16.72;100.00;99929.86;1747456;81;20906;-60
2021/05/27 03:53:23;;;;;;;21.90;17.05;;;;;;;16.69;100.00;99929.16;1749012;80;20895;-59
2021/05/27 03:55:58;;;;;;;23.45;15.95;;;;;;;16.63;100.00;99927.75;1780453;79;20966;-58
2021/05/27 04:03:14;;;;;;;24.55;19.45;;;;;;;16.69;100.00;99927.30;1782324;79;22031;-57
2021/05/27 04:08:22;;;;;;;24.00;19.70;;;;;;;16.65;100.00;99931.72;1780792;80;21055;-57
2021/05/27 04:10:49;;;;;;;22.02;17.82;;;;;;;16.67;100.00;99940.17;1780810;80;20988;-58
2021/05/27 04:13:16;;;;;;;24.10;18.07;;;;;;;16.70;100.00;99929.04;1779656;79;20953;-57
2021/05/27 04:15:43;;;;;;;24.85;19.77;;;;;;;16.74;100.00;99933.32;1780997;80;20968;-57
2021/05/27 04:18:18;;;;;;;23.40;20.88;;;;;;;16.78;100.00;99925.81;1779952;80;21462;-51
2021/05/27 04:20:51;;;;;;;21.30;18.95;;;;;;;16.83;100.00;99929.06;1777723;79;21697;-60
2021/05/27 04:23:33;;;;;;;21.82;19.48;;;;;;;16.96;100.00;99934.47;1779861;79;21487;-59
2021/05/27 04:26:02;;;;;;;25.50;19.95;;;;;;;17.01;100.00;99933.15;1779275;80;20933;-56
2021/05/27 04:28:30;;;;;;;22.52;19.15;;;;;;;17.06;100.00;99935.53;1779858;79;21110;-56
2021/05/27 04:31:09;;;;;;;23.07;18.87;;;;;;;17.06;100.00;99938.26;1779176;80;20921;-58
2021/05/27 04:33:39;;;;;;;21.75;18.40;;;;;;;17.03;100.00;99933.02;1780238;80;21611;-55
2021/05/27 04:36:06;;;;;;;20.90;17.82;;;;;;;17.03;100.00;99927.58;1777311;80;20936;-54
2021/05/27 04:38:33;;;;;;;24.75;19.02;;;;;;;17.02;100.00;99932.66;1713619;82;20905;-59
2021/05/27 04:41:11;;;;;;;21.20;17.85;;;;;;;17.02;100.00;99932.16;1712913;82;20973;-65
2021/05/27 04:43:40;;;;;;;20.60;17.77;;;;;;;17.03;100.00;99923.48;1715864;82;20905;-59
2021/05/27 04:46:09;;;;;;;19.00;16.65;;;;;;;17.05;100.00;99928.35;1715374;82;21000;-59
2021/05/27 04:48:37;;;;;;;22.22;18.37;;;;;;;17.11;100.00;99933.34;1717553;82;20889;-60
2021/05/27 04:51:04;;;;;;;21.20;18.12;;;;;;;17.18;100.00;99930.52;1716317;82;20933;-58
2021/05/27 04:53:31;;;;;;;21.70;17.12;;;;;;;17.28;100.00;99930.22;1715808;83;21528;-58
2021/05/27 04:55:59;;;;;;;20.48;17.65;;;;;;;17.34;100.00;99936.19;1718170;82;20937;-59
2021/05/27 04:58:26;;;;;;;19.62;17.52;;;;;;;17.37;100.00;99937.34;1716654;83;21722;-58
2021/05/27 05:00:53;;;;;;;24.00;19.37;;;;;;;17.40;100.00;99933.00;1717471;82;20938;-58
2021/05/27 05:03:20;;;;;;;21.05;18.12;;;;;;;17.48;100.00;99931.94;1703587;82;20898;-59
2021/05/27 05:05:47;;;;;;;19.50;17.50;;;;;;;17.58;100.00;99937.53;1768531;79;20949;-59
2021/05/27 05:08:14;;;;;;;20.77;17.87;;;;;;;17.65;100.00;99932.02;1766393;81;20960;-59
2021/05/27 05:10:43;;;;;;;21.57;18.02;;;;;;;17.72;100.00;99927.81;1766526;81;20994;-58
2021/05/27 05:13:10;;;;;;;19.62;17.60;;;;;;;17.77;99.77;99931.95;1767086;79;20964;-56
2021/05/27 05:15:40;;;;;;;20.57;16.73;;;;;;;17.82;99.41;99930.73;1766373;79;20890;-58
2021/05/27 05:18:10;;;;;;;23.22;18.00;;;;;;;17.88;99.10;99927.53;1762482;79;20933;-57
2021/05/27 05:20:45;;;;;;;17.67;15.70;;;;;;;17.93;98.78;99928.05;1766463;79;20980;-58
2021/05/27 05:23:13;;;;;;;22.25;16.95;;;;;;;17.99;98.49;99919.38;1765408;81;21672;-60
2021/05/27 05:25:41;;;;;;;21.10;16.20;;;;;;;18.04;97.96;99914.42;1765628;79;20950;-55
2021/05/27 05:28:08;;;;;;;21.37;16.30;;;;;;;18.09;97.86;99908.61;1765019;81;20957;-67
2021/05/27 05:30:36;;;;;;;18.95;15.88;;;;;;;18.17;97.38;99909.75;1765988;79;21564;-63
2021/05/27 05:33:05;;;;;;;19.65;16.40;;;;;;;18.29;97.10;99907.90;1764954;79;20937;-58
2021/05/27 05:35:32;;;;;;;20.88;17.77;;;;;;;18.45;96.69;99904.81;1766075;79;21164;-59
2021/05/27 05:38:00;;;;;;;16.97;14.20;;;;;;;18.60;95.66;99917.23;1763703;79;20902;-60
2021/05/27 05:40:28;;;;;;;21.97;15.85;;;;;;;18.76;94.47;99914.16;1763220;79;21615;-55
2021/05/27 05:42:56;;;;;;;18.05;16.15;;;;;;;18.95;93.02;99914.37;1764764;79;21544;-54
2021/05/27 05:45:23;;;;;;;19.25;15.20;;;;;;;19.20;91.76;99915.95;1765721;79;20957;-56
2021/05/27 05:47:52;;;;;;;20.82;14.23;;;;;;;19.54;90.13;99904.88;1764004;79;21620;-57
2021/05/27 05:53:08;;;;;;;16.85;12.80;;;;;;;20.36;85.58;99905.96;1765753;79;20969;-57
2021/05/27 05:55:35;;;;;;;20.35;13.95;;;;;;;20.76;83.07;99911.14;1766528;79;20929;-57
2021/05/27 05:58:03;;;;;;;38.78;17.05;;;;;;;21.06;80.75;99913.84;1764191;81;21862;-58
2021/05/27 06:00:30;;;;;;;39.42;15.23;;;;;;;21.32;78.75;99906.52;1766033;81;21028;-60
2021/05/27 06:02:58;;;;;;;39.65;15.45;;;;;;;21.54;76.53;99905.38;1765952;80;20941;-57
2021/05/27 06:05:33;;;;;;;30.40;11.05;;;;;;;21.63;74.83;99910.02;1761685;81;21351;-60
2021/05/27 06:08:03;;;;;;;29.65;10.55;;;;;;;21.52;73.51;99907.38;1762447;79;20938;-57
2021/05/27 06:10:30;;;;;;;22.02;9.90;;;;;;;21.64;72.39;99914.48;1765141;79;21103;-59
2021/05/27 06:12:57;;;;;;;26.00;9.70;;;;;;;21.63;72.01;99911.39;1764915;79;21033;-60
2021/05/27 06:15:25;;;;;;;37.48;13.00;;;;;;;21.54;71.59;99902.63;1765561;79;20961;-58
2021/05/27 06:17:52;;;;;;;34.92;13.03;;;;;;;21.44;71.76;99906.23;1764054;79;20997;-57
2021/05/27 06:20:22;;;;;;;26.42;10.93;;;;;;;21.39;72.06;99908.53;1764639;79;21404;-58
2021/05/27 06:22:50;;;;;;;24.75;10.38;;;;;;;21.53;71.61;99903.65;1765958;79;20954;-57
2021/05/27 06:25:19;;;;;;;28.12;10.55;;;;;;;21.57;71.08;99903.70;1760133;80;21082;-58
2021/05/27 06:27:45;;;;;;;23.42;10.28;;;;;;;21.54;70.93;99902.63;1766616;81;20949;-58
2021/05/27 06:30:13;;;;;;;14.28;8.25;;;;;;;21.51;70.72;99900.16;1764976;79;20898;-57
2021/05/27 06:32:41;;;;;;;11.73;8.00;;;;;;;21.53;69.55;99902.27;1764139;81;21085;-59
2021/05/27 06:35:11;;;;;;;11.48;8.28;;;;;;;21.61;68.64;99907.90;1764699;79;20985;-60
2021/05/27 06:37:39;;;;;;;12.35;8.73;;;;;;;21.55;68.61;99904.36;1764789;79;21715;-60
2021/05/27 06:40:12;;;;;;;11.30;8.83;;;;;;;21.48;68.55;99904.58;1764979;79;20961;-57
2021/05/27 06:42:40;;;;;;;10.85;8.05;;;;;;;21.45;68.91;99898.86;1764001;81;20925;-58
2021/05/27 06:45:08;;;;;;;12.60;9.73;;;;;;;21.56;68.53;99898.72;1764618;79;21412;-60
2021/05/27 06:47:35;;;;;;;18.82;11.48;;;;;;;21.52;68.64;99901.41;1765339;81;20953;-57
2021/05/27 06:50:02;;;;;;;11.85;9.08;;;;;;;21.42;68.73;99903.28;1765692;79;21559;-60
2021/05/27 06:52:28;;;;;;;15.28;8.38;;;;;;;21.53;68.71;99906.39;1766369;79;21046;-57
2021/05/27 06:54:55;;;;;;;9.63;7.72;;;;;;;21.81;67.38;99911.02;1765016;79;21478;-58
2021/05/27 06:57:22;;;;;;;11.78;8.18;;;;;;;22.18;66.53;99911.14;1763699;81;21343;-60
2021/05/27 06:59:49;;;;;;;11.12;8.65;;;;;;;22.36;65.79;99902.99;1766875;79;21414;-59
2021/05/27 07:02:17;;;;;;;15.28;9.60;;;;;;;22.38;65.54;99906.48;1766000;79;21059;-58
2021/05/27 07:04:45;;;;;;;13.08;8.58;;;;;;;22.36;65.40;99908.49;1764165;79;21935;-59
2021/05/27 07:07:13;;;;;;;18.15;8.65;;;;;;;22.25;65.55;99901.80;1765977;79;21005;-58
2021/05/27 07:09:40;;;;;;;9.40;7.62;;;;;;;22.15;65.92;99896.83;1766669;79;21036;-59
2021/05/27 07:12:08;;;;;;;16.15;8.73;;;;;;;22.11;65.29;99892.67;1764806;81;20953;-59
2021/05/27 07:14:35;;;;;;;10.98;9.03;;;;;;;22.06;65.82;99894.95;1766321;81;21575;-58
2021/05/27 07:17:07;;;;;;;11.45;7.80;;;;;;;22.05;66.00;99887.70;1764788;79;20946;-59
2021/05/27 07:19:32;;;;;;;11.45;7.78;;;;;;;22.05;65.92;99883.11;1766190;80;20921;-58
2021/05/27 07:22:00;;;;;;;15.32;8.63;;;;;;;22.04;66.14;99885.98;1766609;79;20992;-58
2021/05/27 07:24:27;;;;;;;12.75;7.05;;;;;;;22.02;66.56;99888.02;1765684;81;21068;-60
2021/05/27 07:26:54;;;;;;;8.13;6.65;;;;;;;22.03;65.35;99886.48;1765176;79;21036;-59
2021/05/27 07:29:21;;;;;;;9.05;6.90;;;;;;;21.97;64.53;99887.94;1764654;79;20957;-60
2021/05/27 07:31:48;;;;;;;10.18;6.08;;;;;;;21.90;64.64;99893.67;1764766;79;20985;-57
2021/05/27 07:34:15;;;;;;;8.93;7.15;;;;;;;21.89;64.48;99891.94;1765969;79;20980;-59
2021/05/27 07:36:44;;;;;;;10.82;6.80;;;;;;;21.91;64.37;99888.53;1766344;79;20954;-58
2021/05/27 07:39:11;;;;;;;8.85;7.20;;;;;;;21.89;64.40;99889.20;1765354;81;21644;-58
2021/05/27 07:41:39;;;;;;;9.93;7.42;;;;;;;21.95;64.61;99885.00;1765238;79;21609;-58
2021/05/27 07:44:06;;;;;;;8.33;6.65;;;;;;;22.02;64.33;99885.27;1766182;79;20969;-51
2021/05/27 07:46:33;;;;;;;7.12;6.42;;;;;;;22.05;63.60;99876.72;1764003;81;20985;-50
2021/05/27 07:49:00;;;;;;;8.35;7.50;;;;;;;22.04;63.01;99869.50;1765221;81;20905;-52
2021/05/27 07:51:27;;;;;;;12.55;8.08;;;;;;;22.00;63.28;99866.67;1765726;79;21017;-51
2021/05/27 07:53:54;;;;;;;13.78;7.92;;;;;;;22.03;63.48;99870.00;1764223;79;21625;-51
2021/05/27 07:56:21;;;;;;;10.80;7.53;;;;;;;22.06;62.40;99866.11;1763873;79;21435;-51
2021/05/27 07:58:48;;;;;;;14.23;7.78;;;;;;;22.00;62.08;99868.05;1766855;79;20953;-53
2021/05/27 08:01:15;;;;;;;9.35;8.10;;;;;;;21.89;62.65;99858.98;1766549;79;20901;-51
2021/05/27 08:03:42;;;;;;;9.48;8.15;;;;;;;21.87;62.82;99865.11;1765995;79;21046;-50
2021/05/27 08:06:09;;;;;;;9.80;7.83;;;;;;;21.87;62.70;99865.11;1765664;81;21424;-52
2021/05/27 08:08:36;;;;;;;10.03;8.15;;;;;;;21.93;63.28;99865.89;1760778;81;20945;-51
2021/05/27 08:11:05;;;;;;;9.63;7.72;;;;;;;22.00;63.03;99859.81;1764598;79;21482;-53
2021/05/27 08:13:32;;;;;;;10.38;8.40;;;;;;;22.08;63.04;99858.07;1764545;79;21020;-53
2021/05/27 08:15:59;;;;;;;8.93;8.03;;;;;;;22.16;62.23;99857.38;1766184;79;21463;-50
2021/05/27 08:18:26;;;;;;;9.43;7.62;;;;;;;22.22;62.33;99849.91;1764748;79;20890;-50
2021/05/27 08:20:55;;;;;;;8.15;6.80;;;;;;;22.33;62.08;99852.47;1765576;79;20949;-52
2021/05/27 08:23:22;;;;;;;8.88;6.85;;;;;;;22.42;59.99;99850.17;1764629;79;20927;-51
2021/05/27 08:25:49;;;;;;;8.25;7.12;;;;;;;22.47;59.45;99849.73;1766738;79;20914;-52
2021/05/27 08:28:16;;;;;;;12.03;7.65;;;;;;;22.54;59.76;99844.52;1764701;81;20992;-51
2021/05/27 08:30:43;;;;;;;10.25;7.22;;;;;;;22.57;59.40;99844.20;1764951;79;20964;-52
2021/05/27 08:33:10;;;;;;;9.13;7.22;;;;;;;22.60;59.28;99846.66;1765052;79;20909;-53
2021/05/27 08:35:37;;;;;;;8.00;6.97;;;;;;;22.61;58.71;99845.62;1765775;79;20985;-51
2021/05/27 08:38:05;;;;;;;7.90;7.10;;;;;;;22.61;59.02;99839.62;1763703;81;21597;-52
2021/05/27 08:40:31;;;;;;;10.40;7.30;;;;;;;22.63;58.49;99835.33;1766783;79;21029;-51
2021/05/27 08:43:00;;;;;;;11.12;7.85;;;;;;;22.67;58.95;99843.64;1764990;79;20981;-60
2021/05/27 08:45:30;;;;;;;10.32;7.58;;;;;;;22.74;59.45;99837.88;1765007;79;21024;-58
2021/05/27 08:47:59;;;;;;;8.98;7.67;;;;;;;22.80;58.92;99843.27;1763926;79;20945;-62
2021/05/27 08:50:33;;;;;;;8.95;7.67;;;;;;;22.84;58.56;99846.08;1766447;79;21556;-60
2021/05/27 08:53:00;;;;;;;12.53;7.87;;;;;;;22.82;58.55;99840.74;1765512;81;20957;-60
2021/05/27 08:55:27;;;;;;;14.45;8.08;;;;;;;22.83;59.21;99847.97;1765756;79;21017;-61
2021/05/27 08:57:54;;;;;;;12.43;8.05;;;;;;;22.83;59.48;99845.22;1764894;79;20956;-59
2021/05/27 09:00:21;;;;;;;12.20;8.65;;;;;;;22.86;59.72;99839.94;1766262;79;21509;-63
2021/05/27 09:03:01;;;;;;;12.55;8.08;;;;;;;22.89;59.83;99836.38;1766385;79;21467;-61
2021/05/27 09:05:32;;;;;;;9.90;7.33;;;;;;;22.93;59.37;99843.31;1765271;79;21897;-61
2021/05/27 09:07:59;;;;;;;11.27;7.97;;;;;;;22.95;59.24;99833.01;1766317;79;20953;-60
2021/05/27 09:10:43;;;;;;;11.03;8.70;;;;;;;22.99;59.42;99842.69;1764907;79;21087;-62
2021/05/27 09:13:19;;;;;;;12.07;8.35;;;;;;;23.00;59.43;99845.79;1765345;80;21472;-61
2021/05/27 09:15:48;;;;;;;15.15;8.45;;;;;;;23.03;59.17;99854.77;1765065;79;21539;-63
2021/05/27 09:18:35;;;;;;;15.72;7.83;;;;;;;22.97;59.24;99858.50;1765384;79;21033;-58
2021/05/27 09:21:02;;;;;;;10.38;7.75;;;;;;;22.93;58.92;99851.56;1764614;79;21507;-59
2021/05/27 09:23:30;;;;;;;9.20;6.92;;;;;;;22.89;58.17;99849.27;1765235;79;20973;-59
2021/05/27 09:26:12;;;;;;;10.68;7.67;;;;;;;22.90;58.30;99854.61;1764697;79;20945;-60
2021/05/27 09:28:41;;;;;;;10.75;7.05;;;;;;;22.95;58.29;99852.27;1764205;81;20985;-60
2021/05/27 09:31:11;;;;;;;13.78;7.95;;;;;;;22.96;58.37;99847.14;1765397;79;21050;-62
2021/05/27 09:33:44;;;;;;;7.97;6.72;;;;;;;23.02;58.28;99851.67;1764101;79;20941;-60
2021/05/27 09:36:18;;;;;;;7.12;5.85;;;;;;;23.08;57.32;99845.55;1766360;79;20918;-62
2021/05/27 09:38:47;;;;;;;13.35;6.35;;;;;;;23.12;56.86;99840.09;1766021;79;21017;-59
2021/05/27 09:41:27;;;;;;;10.13;5.60;;;;;;;23.14;56.98;99836.67;1766755;79;20899;-60
2021/05/27 09:44:10;;;;;;;15.45;8.40;;;;;;;23.09;57.14;99828.88;1764766;79;24059;-59
2021/05/27 09:46:53;;;;;;;11.78;5.85;;;;;;;23.02;57.96;99826.41;1765878;79;20929;-60
2021/05/27 09:49:25;;;;;;;14.47;6.10;;;;;;;22.96;57.98;99830.64;1765134;81;20945;-59
2021/05/27 09:51:57;;;;;;;18.23;6.65;;;;;;;22.93;58.59;99832.31;1766165;79;20937;-60
2021/05/27 09:54:24;;;;;;;15.40;6.28;;;;;;;22.93;58.83;99835.06;1762228;79;20953;-59
2021/05/27 09:56:51;;;;;;;14.63;5.90;;;;;;;22.98;58.15;99835.46;1765610;79;21040;-60
2021/05/27 09:59:18;;;;;;;8.48;6.22;;;;;;;23.05;57.40;99827.97;1766034;79;20961;-61
2021/05/27 10:02:15;;;;;;;7.75;6.37;;;;;;;23.14;57.50;99832.55;1763982;81;20961;-61
2021/05/27 10:05:04;;;;;;;14.15;6.80;;;;;;;23.24;57.83;99830.07;1763213;79;20933;-58
2021/05/27 10:07:45;;;;;;;7.53;6.80;;;;;;;23.31;57.60;99831.68;1762767;81;21036;-61
2021/05/27 10:10:21;;;;;;;12.20;7.28;;;;;;;23.34;57.75;99830.00;1763988;79;21026;-60
2021/05/27 10:12:50;;;;;;;10.58;7.22;;;;;;;23.36;57.71;99832.08;1767086;79;21081;-62
2021/05/27 10:15:21;;;;;;;18.27;7.75;;;;;;;23.39;57.97;99827.64;1763087;79;20991;-58
2021/05/27 10:17:50;;;;;;;13.38;8.18;;;;;;;23.42;58.01;99824.56;1763546;79;20937;-60
2021/05/27 10:20:22;;;;;;;13.95;8.23;;;;;;;23.39;58.18;99822.14;1764298;81;20913;-61
2021/05/27 10:22:49;;;;;;;9.88;8.15;;;;;;;23.32;58.77;99827.90;1764380;79;21567;-61
2021/05/27 10:25:17;;;;;;;13.83;8.05;;;;;;;23.20;58.89;99820.91;1764216;79;20905;-57
2021/05/27 10:27:47;;;;;;;9.78;8.25;;;;;;;23.12;59.40;99816.71;1765780;79;20989;-59
2021/05/27 10:30:15;;;;;;;9.53;8.53;;;;;;;23.00;59.70;99816.91;1761708;79;20934;-58
2021/05/27 10:32:46;;;;;;;11.90;8.00;;;;;;;22.92;60.29;99809.95;1765197;79;20926;-59
2021/05/27 10:35:14;;;;;;;10.48;8.28;;;;;;;22.86;60.18;99803.67;1764271;79;21036;-59
2021/05/27 10:37:48;;;;;;;15.15;10.28;;;;;;;22.79;60.49;99820.41;1765086;81;20993;-59
2021/05/27 10:40:24;;;;;;;18.37;10.35;;;;;;;22.70;61.03;99814.48;1767300;79;20898;-59
2021/05/27 10:43:10;;;;;;;16.05;10.08;;;;;;;22.63;61.58;99818.84;1764753;79;21624;-59
2021/05/27 10:46:06;;;;;;;13.00;10.45;;;;;;;22.52;62.35;99813.55;1764583;79;20945;-59
2021/05/27 10:48:46;;;;;;;14.28;11.90;;;;;;;22.42;62.96;99815.82;1762861;79;21656;-60
2021/05/27 10:54:03;;;;;;;14.28;12.07;;;;;;;22.25;63.96;99807.00;1764447;79;20910;-59
2021/05/27 10:56:40;;;;;;;12.47;11.28;;;;;;;22.23;64.28;99804.41;1765543;80;20981;-59
2021/05/27 10:59:09;;;;;;;12.00;10.80;;;;;;;22.23;64.56;99803.55;1765305;81;20894;-58
2021/05/27 11:01:42;;;;;;;11.75;10.55;;;;;;;22.22;64.48;99807.32;1764761;79;22102;-58
2021/05/27 11:04:28;;;;;;;12.78;11.18;;;;;;;22.17;64.73;99795.92;1769164;79;20972;-58
2021/05/27 11:07:19;;;;;;;12.70;11.38;;;;;;;22.14;64.91;99801.70;1773704;79;21000;-58
2021/05/27 11:09:52;;;;;;;17.05;11.33;;;;;;;22.10;65.38;99794.73;1718532;79;20984;-58
2021/05/27 11:12:25;;;;;;;14.23;10.53;;;;;;;22.08;65.65;99792.66;1774446;79;21920;-58
2021/05/27 11:15:05;;;;;;;12.15;10.68;;;;;;;22.08;65.80;99795.41;1774240;79;21057;-59
2021/05/27 11:17:32;;;;;;;12.80;8.28;;;;;;;22.05;65.88;99794.31;1773703;80;20929;-54
2021/05/27 11:20:05;;;;;;;10.98;8.28;;;;;;;21.97;66.36;99793.19;1775354;79;20941;-62
2021/05/27 11:25:19;;;;;;;10.75;7.10;;;;;;;21.89;66.91;99795.83;1774054;79;20952;-56
2021/05/27 11:28:13;;;;;;;10.00;8.03;;;;;;;21.86;67.60;99797.48;1773157;80;21040;-56
2021/05/27 11:30:45;;;;;;;9.70;6.42;;;;;;;21.83;68.02;99796.91;1773718;79;20953;-56
2021/05/27 11:33:29;;;;;;;9.55;6.20;;;;;;;21.78;68.98;99790.48;1772300;80;20913;-58
2021/05/27 11:35:57;;;;;;;10.98;5.90;;;;;;;21.71;69.38;99794.84;1773746;79;20945;-54
2021/05/27 11:38:29;;;;;;;7.17;5.53;;;;;;;21.64;69.84;99795.08;1773350;79;21530;-53
2021/05/27 11:41:06;;;;;;;10.63;6.80;;;;;;;21.60;70.36;99798.61;1770696;79;21668;-54
2021/05/27 11:43:41;;;;;;;8.55;5.40;;;;;;;21.57;71.14;99798.03;1771983;79;20993;-54
2021/05/27 11:46:15;;;;;;;8.85;5.70;;;;;;;21.50;71.41;99795.52;1774892;79;21000;-54
2021/05/27 11:49:00;;;;;;;10.13;6.47;;;;;;;21.47;71.68;99809.05;1772621;79;21054;-54
2021/05/27 11:51:18;;;;;;;12.82;8.25;;;;;;;21.40;72.78;99817.47;1767987;80;20905;-52
2021/05/27 11:53:59;;;;;;;12.50;8.13;;;;;;;21.17;77.14;99824.59;1772465;79;21679;-53
2021/05/27 11:56:43;;;;;;;10.98;8.25;;;;;;;20.81;80.62;99826.11;1774348;80;20913;-52
2021/05/27 11:59:23;;;;;;;11.40;8.45;;;;;;;20.45;82.63;99833.02;1773360;79;21041;-54
2021/05/27 12:01:54;;;;;;;16.05;9.63;;;;;;;20.19;86.51;99837.22;1774301;79;20968;-54